Time;durP1;ratioP1;P1;durP2;ratioP2;P2;SDS_P1;SDS_P2;PMS_P1;PMS_P2;Temp;Humidity;BMP_temperature;BMP_pressure;BME280_temperature;BME280_humidity;BME280_pressure;Samples;Min_cycle;Max_cycle;Signal;HPM_P1;HPM_P2
2020/12/11 00:02:02;;;;;;;20.33;12.40;;;3.20;1.00;;;;;;5093141;28;20242;-68
2020/12/11 00:04:27;;;;;;;17.88;12.63;;;3.20;1.00;;;;;;5093028;28;20181;-68
2020/12/11 00:06:56;;;;;;;21.53;12.90;;;3.30;1.00;;;;;;5093026;28;20170;-68
2020/12/11 00:09:22;;;;;;;19.08;13.07;;;3.40;1.00;;;;;;5093272;28;20171;-68
2020/12/11 00:11:47;;;;;;;18.10;12.17;;;3.40;1.00;;;;;;5094541;28;20177;-68
2020/12/11 00:14:13;;;;;;;14.57;11.30;;;3.30;1.00;;;;;;5097111;28;20457;-69
2020/12/11 00:16:38;;;;;;;15.97;11.70;;;3.30;1.00;;;;;;5097167;28;20163;-68
2020/12/11 00:19:04;;;;;;;17.27;10.60;;;3.30;1.00;;;;;;5097301;28;20218;-69
2020/12/11 00:21:38;;;;;;;17.77;11.60;;;3.30;1.00;;;;;;5097111;28;20201;-68
2020/12/11 00:24:03;;;;;;;16.23;11.68;;;3.20;1.00;;;;;;5097293;28;20195;-68
2020/12/11 00:26:29;;;;;;;18.43;12.03;;;3.30;1.00;;;;;;5097053;28;20217;-68
2020/12/11 00:28:54;;;;;;;16.17;10.97;;;3.10;1.00;;;;;;5096978;28;20174;-68
2020/12/11 00:31:24;;;;;;;17.77;12.37;;;3.30;1.00;;;;;;5096896;28;20171;-68
2020/12/11 00:33:49;;;;;;;18.70;12.70;;;3.10;1.00;;;;;;5097448;28;20207;-68
2020/12/11 00:36:15;;;;;;;16.77;10.70;;;3.10;1.00;;;;;;5096860;28;20214;-68
2020/12/11 00:38:41;;;;;;;13.63;9.97;;;3.10;1.00;;;;;;5096693;28;20668;-68
2020/12/11 00:41:06;;;;;;;18.63;12.00;;;3.20;1.00;;;;;;5096706;28;20168;-68
2020/12/11 00:43:32;;;;;;;17.90;10.90;;;3.20;1.00;;;;;;5096937;28;20218;-68
2020/12/11 00:45:57;;;;;;;13.47;10.80;;;3.20;1.00;;;;;;5096814;28;20191;-68
2020/12/11 00:48:23;;;;;;;15.33;11.60;;;3.00;1.00;;;;;;5097137;28;20160;-68
2020/12/11 00:50:48;;;;;;;16.70;9.90;;;3.20;1.00;;;;;;5096819;28;20723;-68
2020/12/11 00:53:14;;;;;;;17.37;10.50;;;3.30;1.00;;;;;;5096559;28;20706;-69
2020/12/11 00:55:39;;;;;;;19.03;11.43;;;3.30;1.00;;;;;;5096617;28;20192;-68
2020/12/11 00:58:05;;;;;;;14.17;9.50;;;3.20;1.00;;;;;;5096707;28;20573;-68
2020/12/11 01:00:30;;;;;;;17.47;10.07;;;3.40;1.00;;;;;;5096548;28;20210;-69
2020/12/11 01:02:56;;;;;;;17.97;11.40;;;3.20;1.00;;;;;;5096375;28;20652;-68
2020/12/11 01:05:21;;;;;;;15.67;11.40;;;3.30;1.00;;;;;;5096173;28;20278;-68
2020/12/11 01:07:47;;;;;;;16.13;10.83;;;3.40;1.00;;;;;;5096450;28;20163;-68
2020/12/11 01:10:12;;;;;;;15.93;10.20;;;3.50;1.00;;;;;;5096670;28;20216;-67
2020/12/11 01:12:38;;;;;;;15.97;9.67;;;3.40;1.00;;;;;;5096695;28;20220;-68
2020/12/11 01:15:04;;;;;;;15.33;9.77;;;3.40;1.00;;;;;;5095916;28;20297;-67
2020/12/11 01:17:29;;;;;;;14.30;9.03;;;3.20;1.00;;;;;;5096294;28;20199;-68
2020/12/11 01:19:55;;;;;;;18.50;11.03;;;3.30;1.00;;;;;;5096003;28;20793;-68
2020/12/11 01:22:20;;;;;;;14.97;9.30;;;3.30;1.00;;;;;;5096255;28;20659;-69
2020/12/11 01:24:46;;;;;;;13.50;9.10;;;3.30;1.00;;;;;;5095097;28;20660;-68
2020/12/11 01:27:12;;;;;;;13.73;9.77;;;3.30;1.00;;;;;;5096115;28;20203;-68
2020/12/11 01:29:38;;;;;;;12.27;9.48;;;3.40;1.00;;;;;;5096461;28;20576;-69
2020/12/11 01:32:03;;;;;;;14.63;9.13;;;3.50;1.00;;;;;;5096054;28;20277;-68
2020/12/11 01:34:29;;;;;;;14.43;10.47;;;3.40;1.00;;;;;;5096126;28;20195;-68
2020/12/11 01:36:54;;;;;;;13.90;10.03;;;3.30;1.00;;;;;;5095996;28;20171;-69
2020/12/11 01:39:20;;;;;;;14.60;10.53;;;3.40;1.00;;;;;;5095892;28;20195;-69
2020/12/11 01:41:50;;;;;;;14.20;10.80;;;3.40;1.00;;;;;;5095716;28;20195;-69
2020/12/11 01:44:16;;;;;;;15.60;10.90;;;3.40;1.00;;;;;;5095895;28;20285;-68
2020/12/11 01:46:41;;;;;;;14.10;9.50;;;3.30;1.00;;;;;;5095543;28;20198;-69
2020/12/11 01:49:09;;;;;;;12.13;9.00;;;3.30;1.00;;;;;;5095848;28;20167;-68
2020/12/11 01:51:36;;;;;;;15.43;10.70;;;3.40;1.00;;;;;;5095425;28;20202;-69
2020/12/11 01:54:03;;;;;;;16.05;9.52;;;3.40;1.00;;;;;;5095472;28;20237;-68
2020/12/11 01:57:05;;;;;;;14.70;10.57;;;3.40;1.00;;;;;;5095292;28;20577;-68
2020/12/11 01:59:39;;;;;;;11.60;9.38;;;3.40;1.00;;;;;;5094781;28;20207;-69
2020/12/11 02:02:06;;;;;;;12.25;9.77;;;3.40;1.00;;;;;;5095216;28;20273;-69
2020/12/11 02:04:36;;;;;;;14.02;9.48;;;3.50;1.00;;;;;;5095113;28;20236;-68
2020/12/11 02:07:03;;;;;;;12.55;8.82;;;3.40;1.00;;;;;;5095437;28;20191;-68
2020/12/11 02:09:35;;;;;;;14.32;9.10;;;3.50;1.00;;;;;;5095379;28;20172;-68
2020/12/11 02:12:02;;;;;;;13.23;9.25;;;3.50;1.00;;;;;;5095064;28;20186;-69
2020/12/11 02:14:28;;;;;;;14.52;9.20;;;3.40;1.00;;;;;;5094922;28;20583;-69
2020/12/11 02:16:59;;;;;;;13.70;9.00;;;3.50;1.00;;;;;;5095223;28;20167;-68
2020/12/11 02:19:29;;;;;;;11.43;8.35;;;3.50;1.00;;;;;;5095070;28;20667;-69
2020/12/11 02:22:05;;;;;;;13.20;8.40;;;3.50;1.00;;;;;;5095116;28;20242;-68
2020/12/11 02:24:30;;;;;;;13.48;8.20;;;3.40;1.00;;;;;;5094812;28;20183;-68
2020/12/11 02:26:57;;;;;;;11.03;7.90;;;3.50;1.00;;;;;;5094965;28;20175;-67
2020/12/11 02:29:24;;;;;;;12.65;9.10;;;3.40;1.00;;;;;;5094622;28;20164;-69
2020/12/11 02:31:50;;;;;;;13.50;8.45;;;3.40;1.00;;;;;;5094608;28;20172;-69
2020/12/11 02:34:16;;;;;;;12.45;8.13;;;3.40;1.00;;;;;;5094142;28;20195;-67
2020/12/11 02:36:41;;;;;;;14.30;8.93;;;3.50;1.00;;;;;;5093794;28;20175;-69
2020/12/11 02:39:07;;;;;;;11.10;9.00;;;3.40;1.00;;;;;;5094557;28;20286;-68
2020/12/11 02:41:33;;;;;;;15.00;9.90;;;3.40;1.00;;;;;;5094677;28;20171;-69
2020/12/11 02:43:58;;;;;;;12.67;8.60;;;3.30;1.00;;;;;;5094278;28;20185;-68
2020/12/11 02:46:24;;;;;;;12.47;8.97;;;3.30;1.00;;;;;;5094659;28;20168;-69
2020/12/11 02:48:49;;;;;;;11.20;8.67;;;3.30;1.00;;;;;;5094949;28;20167;-68
2020/12/11 02:51:15;;;;;;;12.10;8.60;;;3.30;1.00;;;;;;5094329;28;20701;-69
2020/12/11 02:53:40;;;;;;;12.30;9.03;;;3.30;1.00;;;;;;5094417;28;20180;-69
2020/12/11 02:56:06;;;;;;;9.90;7.47;;;3.30;1.00;;;;;;5094099;28;20698;-68
2020/12/11 02:58:32;;;;;;;10.90;8.00;;;3.30;1.00;;;;;;5094126;28;20175;-68
2020/12/11 03:00:57;;;;;;;9.33;7.93;;;3.20;1.00;;;;;;5094254;28;20175;-68
2020/12/11 03:03:23;;;;;;;12.03;8.63;;;3.20;1.00;;;;;;5098002;28;20178;-69
2020/12/11 03:05:48;;;;;;;13.27;9.33;;;3.30;1.00;;;;;;5095905;28;20225;-67
2020/12/11 03:08:14;;;;;;;11.40;7.90;;;3.30;1.00;;;;;;5094886;28;20636;-69
2020/12/11 03:10:39;;;;;;;13.10;9.40;;;3.20;1.00;;;;;;5094202;28;20527;-68
2020/12/11 03:13:05;;;;;;;13.30;9.00;;;3.20;1.00;;;;;;5094463;28;20174;-69
2020/12/11 03:15:30;;;;;;;10.43;7.47;;;3.30;1.00;;;;;;5093702;28;20295;-68
2020/12/11 03:17:56;;;;;;;13.10;8.57;;;3.20;1.00;;;;;;5093850;28;20179;-69
2020/12/11 03:20:24;;;;;;;11.43;8.23;;;3.10;1.00;;;;;;5093635;28;20221;-68
2020/12/11 03:22:54;;;;;;;12.65;7.97;;;3.10;1.00;;;;;;5093621;28;20167;-69
2020/12/11 03:25:20;;;;;;;10.27;7.97;;;3.00;1.00;;;;;;5093486;28;20192;-67
2020/12/11 03:27:46;;;;;;;11.20;8.02;;;3.20;1.00;;;;;;5093557;28;20639;-69
2020/12/11 03:30:11;;;;;;;14.77;8.98;;;3.30;1.00;;;;;;5093826;28;20262;-69
2020/12/11 03:32:38;;;;;;;9.70;8.10;;;3.30;1.00;;;;;;5093527;28;20176;-69
2020/12/11 03:35:05;;;;;;;9.85;7.78;;;3.30;1.00;;;;;;5093389;28;20191;-69
2020/12/11 03:37:30;;;;;;;12.15;8.32;;;3.10;1.00;;;;;;5093444;28;20267;-68
2020/12/11 03:39:56;;;;;;;13.53;8.77;;;3.10;1.00;;;;;;5093613;28;20286;-68
2020/12/11 03:42:21;;;;;;;11.77;8.07;;;3.20;1.00;;;;;;5093431;28;20167;-69
2020/12/11 03:44:47;;;;;;;10.13;7.07;;;3.10;1.00;;;;;;5093535;28;20556;-68
2020/12/11 03:47:12;;;;;;;11.70;8.50;;;3.00;1.00;;;;;;5093293;28;20655;-68
2020/12/11 03:49:38;;;;;;;21.93;9.40;;;3.10;1.00;;;;;;5093387;28;20250;-68
2020/12/11 03:52:03;;;;;;;11.87;7.83;;;3.10;1.00;;;;;;5093481;28;20331;-68
2020/12/11 03:54:29;;;;;;;13.83;9.33;;;3.00;1.00;;;;;;5093124;28;20191;-69
2020/12/11 03:56:54;;;;;;;14.27;8.93;;;3.10;1.00;;;;;;5093191;28;20174;-68
2020/12/11 03:59:20;;;;;;;15.57;8.80;;;3.00;1.00;;;;;;5093597;28;20278;-68
2020/12/11 04:01:45;;;;;;;11.90;8.27;;;3.10;1.00;;;;;;5093359;28;20163;-69
2020/12/11 04:04:11;;;;;;;10.73;8.53;;;3.10;1.00;;;;;;5093189;28;20687;-67
2020/12/11 04:06:37;;;;;;;12.10;8.77;;;3.00;1.00;;;;;;5093349;28;20172;-69
2020/12/11 04:09:03;;;;;;;11.13;8.23;;;3.00;1.00;;;;;;5093230;28;20194;-68
2020/12/11 04:11:29;;;;;;;18.58;10.45;;;3.10;1.00;;;;;;5093261;28;20172;-68
2020/12/11 04:13:55;;;;;;;12.17;8.13;;;3.20;1.00;;;;;;5092790;28;20583;-68
2020/12/11 04:16:20;;;;;;;12.17;8.27;;;3.10;1.00;;;;;;5093257;28;20175;-67
2020/12/11 04:18:46;;;;;;;14.23;8.67;;;3.00;1.00;;;;;;5093088;28;20198;-68
2020/12/11 04:21:13;;;;;;;11.43;8.57;;;3.10;1.00;;;;;;5093155;28;20205;-68
2020/12/11 04:23:40;;;;;;;10.48;7.53;;;3.10;1.00;;;;;;5092746;28;20656;-69
2020/12/11 04:26:06;;;;;;;14.07;8.25;;;3.10;1.00;;;;;;5092909;28;20243;-69
2020/12/11 04:28:32;;;;;;;14.33;7.93;;;3.20;1.00;;;;;;5092881;28;20181;-68
2020/12/11 04:30:57;;;;;;;11.10;7.80;;;3.10;1.00;;;;;;5093091;28;20179;-68
2020/12/11 04:33:23;;;;;;;13.53;9.50;;;3.20;1.00;;;;;;5092791;28;20175;-68
2020/12/11 04:35:48;;;;;;;9.57;7.70;;;3.10;1.00;;;;;;5092652;28;20276;-69
2020/12/11 04:38:14;;;;;;;11.80;9.30;;;3.20;1.00;;;;;;5092746;28;20255;-68
2020/12/11 04:40:39;;;;;;;11.80;8.20;;;3.20;1.00;;;;;;5092905;28;20206;-68
2020/12/11 04:43:08;;;;;;;11.60;9.40;;;3.20;1.00;;;;;;5092835;28;20236;-69
2020/12/11 04:45:36;;;;;;;10.98;7.97;;;3.40;1.00;;;;;;5092671;28;20184;-68
2020/12/11 04:48:01;;;;;;;11.82;8.30;;;3.30;1.00;;;;;;5092961;28;20167;-69
2020/12/11 04:50:27;;;;;;;12.10;8.00;;;3.20;1.00;;;;;;5092649;28;20297;-68
2020/12/11 04:52:57;;;;;;;13.70;9.00;;;3.20;1.00;;;;;;5092930;28;20251;-69
2020/12/11 04:55:22;;;;;;;11.57;7.63;;;3.10;1.00;;;;;;5092807;28;20226;-69
2020/12/11 04:57:53;;;;;;;13.67;8.73;;;3.20;1.00;;;;;;5092917;28;20199;-69
2020/12/11 05:00:21;;;;;;;15.82;9.70;;;3.30;1.00;;;;;;5096381;28;20273;-68
2020/12/11 05:02:48;;;;;;;11.65;8.43;;;3.30;1.00;;;;;;5096310;28;20654;-68
2020/12/11 05:05:15;;;;;;;16.48;10.65;;;3.30;1.00;;;;;;5096667;28;20678;-66
2020/12/11 05:07:42;;;;;;;16.33;9.18;;;3.10;1.00;;;;;;5096226;28;20635;-69
2020/12/11 05:10:09;;;;;;;14.90;9.50;;;3.30;1.00;;;;;;5096364;28;20211;-68
2020/12/11 05:12:35;;;;;;;15.20;9.35;;;3.30;1.00;;;;;;5096373;28;20171;-69
2020/12/11 05:15:04;;;;;;;12.00;8.70;;;3.40;1.00;;;;;;5097284;28;20695;-68
2020/12/11 05:17:33;;;;;;;19.23;9.15;;;3.30;1.00;;;;;;5096316;28;20584;-69
2020/12/11 05:19:59;;;;;;;11.40;8.85;;;3.30;1.00;;;;;;5095951;28;20227;-68
2020/12/11 05:22:30;;;;;;;12.57;9.38;;;3.30;1.00;;;;;;5096232;28;20171;-69
2020/12/11 05:24:57;;;;;;;14.27;9.98;;;3.40;1.00;;;;;;5094636;28;20672;-69
2020/12/11 05:27:37;;;;;;;10.02;8.38;;;3.30;1.00;;;;;;5096248;28;20587;-69
2020/12/11 05:30:13;;;;;;;13.07;9.30;;;3.20;1.00;;;;;;5094539;28;20167;-68
2020/12/11 05:32:47;;;;;;;12.75;8.75;;;3.20;1.00;;;;;;5096066;28;20159;-69
2020/12/11 05:35:18;;;;;;;11.85;8.85;;;3.30;1.00;;;;;;5095899;28;20269;-69
2020/12/11 05:37:52;;;;;;;15.95;11.13;;;3.30;1.00;;;;;;5095750;28;20178;-69
2020/12/11 05:40:35;;;;;;;15.00;10.07;;;3.30;1.00;;;;;;5095945;28;20199;-69
2020/12/11 05:43:15;;;;;;;15.00;9.85;;;3.40;1.00;;;;;;5095455;28;20643;-69
2020/12/11 05:45:58;;;;;;;17.42;11.85;;;3.60;1.00;;;;;;5095690;28;20191;-69
2020/12/11 05:48:25;;;;;;;13.73;9.43;;;3.40;1.00;;;;;;5095356;28;20171;-69
2020/12/11 05:50:51;;;;;;;15.13;9.70;;;3.40;1.00;;;;;;5095608;28;20242;-69
2020/12/11 05:53:17;;;;;;;13.00;9.20;;;3.40;1.00;;;;;;5095326;28;20163;-68
2020/12/11 05:55:43;;;;;;;14.60;10.17;;;3.40;1.00;;;;;;5095036;28;20183;-69
2020/12/11 05:58:12;;;;;;;18.60;10.60;;;3.40;1.00;;;;;;5094963;28;20167;-69
2020/12/11 06:00:41;;;;;;;13.40;10.88;;;3.40;1.00;;;;;;5095135;28;20195;-69
2020/12/11 06:03:07;;;;;;;15.80;9.80;;;3.50;1.00;;;;;;5096040;28;20198;-68
2020/12/11 06:05:39;;;;;;;15.85;11.00;;;3.50;1.00;;;;;;5094928;28;20198;-69
2020/12/11 06:08:09;;;;;;;20.08;12.95;;;3.50;1.00;;;;;;5094687;28;20148;-69
2020/12/11 06:10:37;;;;;;;22.60;10.93;;;3.40;1.00;;;;;;5094889;28;20179;-69
2020/12/11 06:13:04;;;;;;;13.50;9.77;;;3.40;1.00;;;;;;5094673;28;20171;-69
2020/12/11 06:15:42;;;;;;;16.83;9.73;;;3.50;1.00;;;;;;5094658;28;20239;-69
2020/12/11 06:18:19;;;;;;;14.07;10.43;;;3.50;1.00;;;;;;5094718;28;20171;-69
2020/12/11 06:20:47;;;;;;;17.88;11.63;;;3.50;1.00;;;;;;5094682;28;20191;-69
2020/12/11 06:23:28;;;;;;;14.48;9.88;;;3.50;1.00;;;;;;5094481;28;20213;-67
2020/12/11 06:25:59;;;;;;;17.67;10.35;;;3.70;1.00;;;;;;5093732;28;20672;-69
2020/12/11 06:28:53;;;;;;;15.48;10.32;;;3.50;1.00;;;;;;5094302;28;20199;-69
2020/12/11 06:31:20;;;;;;;16.45;9.55;;;3.60;1.00;;;;;;5094660;28;20287;-69
2020/12/11 06:33:53;;;;;;;19.58;11.43;;;3.50;1.00;;;;;;5094192;28;20654;-68
2020/12/11 06:36:18;;;;;;;18.92;10.68;;;3.40;1.00;;;;;;5094473;28;20250;-69
2020/12/11 06:38:56;;;;;;;21.60;11.40;;;3.50;1.00;;;;;;5094404;28;20218;-69
2020/12/11 06:41:27;;;;;;;18.08;10.00;;;3.60;1.00;;;;;;5094419;28;20524;-69
2020/12/11 06:43:54;;;;;;;14.02;10.93;;;3.50;1.00;;;;;;5093915;28;20242;-69
2020/12/11 06:46:22;;;;;;;15.77;10.63;;;3.60;1.00;;;;;;5094156;28;20178;-66
2020/12/11 06:49:06;;;;;;;20.92;9.90;;;3.70;1.00;;;;;;5094399;28;20172;-69
2020/12/11 06:51:33;;;;;;;17.58;10.90;;;3.50;1.00;;;;;;5094531;28;20528;-68
2020/12/11 06:54:00;;;;;;;16.20;11.48;;;3.70;1.00;;;;;;5094318;28;20199;-68
2020/12/11 06:57:00;;;;;;;10.80;9.18;;;3.80;1.00;;;;;;5093802;28;20198;-68
2020/12/11 06:59:28;;;;;;;15.48;9.48;;;3.70;1.00;;;;;;5071152;28;20222;-68
2020/12/11 07:02:17;;;;;;;15.50;11.07;;;3.90;1.00;;;;;;5092515;28;20194;-68
2020/12/11 07:04:49;;;;;;;13.35;9.30;;;3.90;1.00;;;;;;5093683;28;20695;-67
2020/12/11 07:07:15;;;;;;;12.15;9.18;;;3.90;1.00;;;;;;5093943;28;20183;-68
2020/12/11 07:09:42;;;;;;;11.20;9.63;;;3.70;1.00;;;;;;5093529;28;20170;-70
2020/12/11 07:12:08;;;;;;;17.00;9.73;;;3.60;1.00;;;;;;5093697;28;20372;-70
2020/12/11 07:14:34;;;;;;;16.15;10.43;;;3.70;1.00;;;;;;5093476;28;20203;-66
2020/12/11 07:17:00;;;;;;;18.17;10.97;;;3.70;1.00;;;;;;5093614;28;20171;-69
2020/12/11 07:19:26;;;;;;;13.30;9.70;;;3.80;1.00;;;;;;5093870;28;20199;-68
2020/12/11 07:21:54;;;;;;;13.98;10.75;;;3.80;1.00;;;;;;5093194;28;20406;-70
2020/12/11 07:24:20;;;;;;;15.88;9.05;;;3.80;1.00;;;;;;5093451;28;20260;-66
2020/12/11 07:26:46;;;;;;;17.10;9.50;;;3.80;1.00;;;;;;5093380;28;20191;-67
2020/12/11 07:29:16;;;;;;;14.13;10.50;;;3.80;1.00;;;;;;5093478;28;20402;-65
2020/12/11 07:31:44;;;;;;;25.98;11.18;;;3.90;1.00;;;;;;5093432;28;20201;-66
2020/12/11 07:34:21;;;;;;;15.73;9.90;;;3.90;1.00;;;;;;5092959;28;20183;-67
2020/12/11 07:36:54;;;;;;;12.82;10.05;;;4.00;1.00;;;;;;5093561;28;20191;-68
2020/12/11 07:39:20;;;;;;;15.88;9.93;;;3.80;1.00;;;;;;5093455;28;20187;-67
2020/12/11 07:41:47;;;;;;;11.82;9.60;;;3.90;1.00;;;;;;5093289;28;20482;-67
2020/12/11 07:44:26;;;;;;;14.00;9.85;;;3.90;1.00;;;;;;5093243;28;20195;-68
2020/12/11 07:46:53;;;;;;;18.00;11.35;;;3.90;1.00;;;;;;5092927;28;20639;-68
2020/12/11 07:49:19;;;;;;;13.98;10.45;;;4.00;1.00;;;;;;5093242;28;20532;-68
2020/12/11 07:51:46;;;;;;;24.37;9.97;;;3.90;1.00;;;;;;5108730;28;20176;-68
2020/12/11 07:54:12;;;;;;;15.35;10.52;;;4.00;1.00;;;;;;5093027;28;20946;-68
2020/12/11 07:56:38;;;;;;;13.40;9.48;;;4.00;1.00;;;;;;5092849;28;20190;-68
2020/12/11 07:59:14;;;;;;;21.60;9.87;;;4.10;1.00;;;;;;5092600;28;20194;-68
2020/12/11 08:01:46;;;;;;;13.93;10.65;;;4.00;1.00;;;;;;5092907;28;20170;-69
2020/12/11 08:04:12;;;;;;;14.88;9.27;;;4.00;1.00;;;;;;5093907;28;20195;-68
2020/12/11 08:06:37;;;;;;;13.03;10.40;;;4.00;1.00;;;;;;5092993;28;20604;-69
2020/12/11 08:09:13;;;;;;;14.80;9.30;;;4.20;1.00;;;;;;5092227;28;20401;-69
2020/12/11 08:11:43;;;;;;;14.60;10.23;;;4.10;1.00;;;;;;5092413;28;20662;-68
2020/12/11 08:14:08;;;;;;;13.27;9.40;;;4.10;1.00;;;;;;5092502;28;20214;-68
2020/12/11 08:16:34;;;;;;;15.90;9.10;;;4.30;1.00;;;;;;5093160;28;20167;-68
2020/12/11 08:19:01;;;;;;;12.20;8.63;;;4.30;1.00;;;;;;5092662;28;20700;-69
2020/12/11 08:21:33;;;;;;;11.80;9.52;;;4.40;1.00;;;;;;5092704;28;20459;-68
2020/12/11 08:23:59;;;;;;;17.20;8.57;;;4.40;1.00;;;;;;5092779;28;20197;-69
2020/12/11 08:26:35;;;;;;;15.50;10.05;;;4.30;1.00;;;;;;5092397;28;20167;-67
2020/12/11 08:29:05;;;;;;;13.13;10.05;;;4.40;1.00;;;;;;5092835;28;20156;-69
2020/12/11 08:31:41;;;;;;;15.65;10.68;;;4.30;1.00;;;;;;5092709;28;20170;-68
2020/12/11 08:34:11;;;;;;;11.80;10.05;;;4.40;1.00;;;;;;5096243;28;20198;-68
2020/12/11 08:36:39;;;;;;;14.75;9.48;;;4.30;1.00;;;;;;5096325;28;20670;-69
2020/12/11 08:39:24;;;;;;;12.98;7.93;;;4.40;1.00;;;;;;5096658;28;20585;-69
2020/12/11 08:47:11;;;;;;;19.33;10.00;;;4.60;1.00;;;;;;5096482;28;20171;-69
2020/12/11 08:49:41;;;;;;;13.07;9.32;;;4.70;1.00;;;;;;5096096;28;20167;-68
2020/12/11 08:52:08;;;;;;;38.38;10.90;;;4.80;1.00;;;;;;5095843;28;20179;-69
2020/12/11 08:54:34;;;;;;;17.40;9.90;;;4.80;1.00;;;;;;5095987;28;20187;-68
2020/12/11 08:57:00;;;;;;;14.07;10.35;;;4.60;1.00;;;;;;5096135;28;20686;-68
2020/12/11 08:59:25;;;;;;;15.83;9.70;;;4.80;1.00;;;;;;5096339;28;20213;-68
2020/12/11 09:01:51;;;;;;;12.00;8.37;;;4.80;1.00;;;;;;5096200;28;20199;-68
2020/12/11 09:04:16;;;;;;;12.90;9.00;;;4.80;1.00;;;;;;5096031;28;20184;-68
2020/12/11 09:06:44;;;;;;;24.63;9.20;;;4.70;1.00;;;;;;5095586;28;20167;-67
2020/12/11 09:09:10;;;;;;;13.60;8.98;;;4.90;1.00;;;;;;5097024;28;20171;-68
2020/12/11 09:11:35;;;;;;;12.53;8.70;;;4.90;1.00;;;;;;5096928;28;20274;-67
2020/12/11 09:14:01;;;;;;;14.60;8.77;;;4.90;1.00;;;;;;5095930;28;20207;-68
2020/12/11 09:16:26;;;;;;;29.40;10.07;;;4.90;1.00;;;;;;5096056;28;20200;-66
2020/12/11 09:18:52;;;;;;;16.27;9.23;;;5.10;1.00;;;;;;5095861;28;20202;-68
2020/12/11 09:21:17;;;;;;;16.63;8.10;;;5.10;1.00;;;;;;5096717;28;20168;-66
2020/12/11 09:23:43;;;;;;;20.33;8.87;;;5.10;1.00;;;;;;5095821;28;20163;-68
2020/12/11 09:26:08;;;;;;;24.93;9.50;;;5.10;1.00;;;;;;5095266;28;20178;-65
2020/12/11 09:28:34;;;;;;;27.37;8.90;;;5.00;1.00;;;;;;5095584;28;20217;-67
2020/12/11 09:31:00;;;;;;;13.67;9.60;;;5.00;1.00;;;;;;5095575;28;20171;-68
2020/12/11 09:33:28;;;;;;;34.60;11.20;;;4.80;1.00;;;;;;5095175;28;20380;-67
2020/12/11 09:35:54;;;;;;;19.52;9.10;;;5.00;1.00;;;;;;5095139;28;20191;-67
2020/12/11 09:38:20;;;;;;;14.32;10.57;;;5.00;1.00;;;;;;5095940;28;20211;-67
2020/12/11 09:54:03;;;;;;;42.17;10.98;;;5.30;1.00;;;;;;5095302;28;20158;-68
2020/12/11 09:56:29;;;;;;;19.88;9.10;;;5.20;1.00;;;;;;5095311;28;20156;-68
2020/12/11 09:58:59;;;;;;;14.93;8.90;;;5.20;1.00;;;;;;5094648;28;20268;-67
2020/12/11 10:01:49;;;;;;;15.18;8.07;;;5.00;1.00;;;;;;5095251;28;20539;-66
2020/12/11 10:04:15;;;;;;;18.58;11.18;;;5.10;1.00;;;;;;5094788;28;20199;-68
2020/12/11 10:06:40;;;;;;;24.50;8.70;;;5.30;1.00;;;;;;5094603;28;20171;-68
2020/12/11 10:09:06;;;;;;;10.53;7.93;;;5.30;1.00;;;;;;5094791;28;20233;-67
2020/12/11 10:11:31;;;;;;;17.53;8.93;;;5.10;1.00;;;;;;5094674;28;20224;-68
2020/12/11 10:16:42;;;;;;;18.42;9.02;;;5.30;1.00;;;;;;5094822;28;20234;-68
2020/12/11 10:19:08;;;;;;;15.10;9.70;;;5.20;1.00;;;;;;5094167;28;20252;-67
2020/12/11 10:21:34;;;;;;;19.93;9.63;;;5.10;1.00;;;;;;5094884;28;20171;-68
2020/12/11 10:23:59;;;;;;;19.73;8.60;;;5.10;1.00;;;;;;5094559;28;20403;-68
2020/12/11 10:26:25;;;;;;;18.80;10.07;;;5.10;1.00;;;;;;5094158;28;20195;-68
2020/12/11 10:28:50;;;;;;;14.53;9.43;;;5.30;1.00;;;;;;5094575;28;20175;-68
2020/12/11 10:31:16;;;;;;;17.30;9.53;;;5.30;1.00;;;;;;5094031;28;20703;-68
2020/12/11 10:33:42;;;;;;;18.90;9.97;;;5.40;1.00;;;;;;5093865;28;20201;-67
2020/12/11 10:36:07;;;;;;;17.93;9.43;;;5.40;1.00;;;;;;5093956;28;20262;-68
2020/12/11 10:38:33;;;;;;;22.47;10.40;;;5.40;1.00;;;;;;5094370;28;20167;-68
2020/12/11 10:40:58;;;;;;;14.83;10.13;;;5.50;1.00;;;;;;5094394;28;20202;-67
2020/12/11 10:43:24;;;;;;;17.60;8.70;;;5.60;1.00;;;;;;5093917;28;20246;-68
2020/12/11 10:45:49;;;;;;;18.33;9.07;;;5.50;1.00;;;;;;5093754;28;20571;-67
2020/12/11 10:48:15;;;;;;;11.07;8.40;;;5.70;1.00;;;;;;5094679;28;20168;-66
2020/12/11 10:50:40;;;;;;;14.10;9.13;;;5.70;1.00;;;;;;5094364;28;20170;-67
2020/12/11 10:53:06;;;;;;;25.50;10.47;;;5.80;1.00;;;;;;5093947;28;20163;-68
2020/12/11 10:55:32;;;;;;;13.00;8.77;;;5.80;1.00;;;;;;5093252;28;20691;-67
2020/12/11 10:57:57;;;;;;;19.23;9.33;;;5.80;1.00;;;;;;5093863;28;20248;-67
2020/12/11 11:00:23;;;;;;;13.20;7.93;;;5.80;1.00;;;;;;5093800;28;20187;-68
2020/12/11 11:02:48;;;;;;;15.77;9.50;;;5.90;1.00;;;;;;5093845;28;20174;-68
2020/12/11 11:05:14;;;;;;;12.73;8.53;;;6.00;1.00;;;;;;5093861;28;20191;-68
2020/12/11 11:07:41;;;;;;;18.50;8.70;;;5.70;1.00;;;;;;5093798;28;20651;-68
2020/12/11 11:12:43;;;;;;;13.02;8.18;;;5.60;1.00;;;;;;5093565;28;20210;-68
2020/12/11 11:28:08;;;;;;;14.98;7.22;;;5.80;1.00;;;;;;5093604;28;20186;-66
2020/12/11 11:30:34;;;;;;;21.50;9.30;;;5.80;1.00;;;;;;5093411;28;20167;-66
2020/12/11 11:33:00;;;;;;;18.40;8.07;;;5.80;1.00;;;;;;5093342;28;20552;-66
2020/12/11 11:35:28;;;;;;;25.83;7.67;;;5.90;1.00;;;;;;5093246;28;20219;-66
2020/12/11 11:37:53;;;;;;;11.50;7.47;;;5.70;1.00;;;;;;5093102;28;20601;-67
2020/12/11 11:40:19;;;;;;;21.53;7.87;;;5.70;1.00;;;;;;5092856;28;20244;-68
2020/12/11 11:42:44;;;;;;;19.33;8.93;;;5.90;1.00;;;;;;5092851;28;20195;-65
2020/12/11 11:45:17;;;;;;;18.10;7.30;;;6.10;1.00;;;;;;5092843;28;20516;-69
2020/12/11 11:47:47;;;;;;;19.13;8.65;;;5.90;1.00;;;;;;5092830;28;20148;-68
2020/12/11 11:52:48;;;;;;;19.67;8.35;;;6.20;1.00;;;;;;5093248;28;20164;-67
2020/12/11 11:55:13;;;;;;;11.02;7.25;;;6.10;1.00;;;;;;5092791;28;20210;-65
2020/12/11 11:57:40;;;;;;;17.00;8.20;;;6.10;1.00;;;;;;5092708;28;20224;-67
2020/12/11 12:00:08;;;;;;;16.20;6.65;;;6.10;1.00;;;;;;5092929;28;20195;-67
2020/12/11 12:02:33;;;;;;;17.70;7.97;;;6.20;1.00;;;;;;5092952;28;20191;-68
2020/12/11 12:04:59;;;;;;;19.77;7.83;;;6.30;1.00;;;;;;5092974;28;20287;-68
2020/12/11 12:07:28;;;;;;;16.33;9.15;;;6.40;1.00;;;;;;5092801;28;20550;-67
2020/12/11 12:09:54;;;;;;;21.55;8.48;;;6.60;1.00;;;;;;5092454;28;20242;-67
2020/12/11 12:12:20;;;;;;;12.98;7.97;;;6.60;1.00;;;;;;5092470;28;20262;-68
2020/12/11 12:14:47;;;;;;;17.30;8.20;;;6.70;1.00;;;;;;5092561;28;20299;-67
2020/12/11 12:17:14;;;;;;;10.68;7.25;;;6.70;1.00;;;;;;5092618;28;20297;-69
2020/12/11 12:19:43;;;;;;;11.75;7.25;;;6.70;1.00;;;;;;5091210;28;20195;-68
2020/12/11 12:29:48;;;;;;;23.37;9.87;;;7.70;1.00;;;;;;5091958;28;20171;-68
2020/12/11 12:32:16;;;;;;;16.57;7.60;;;7.60;1.00;;;;;;5092094;28;20171;-67
2020/12/11 12:44:48;;;;;;;16.83;8.30;;;8.00;1.00;;;;;;5092377;28;20193;-67
2020/12/11 12:47:14;;;;;;;31.33;8.87;;;8.20;1.00;;;;;;5091959;28;20546;-67
2020/12/11 12:49:39;;;;;;;11.13;6.60;;;8.30;1.00;;;;;;5092458;28;20190;-68
2020/12/11 12:52:05;;;;;;;12.03;6.50;;;8.40;1.00;;;;;;5092036;28;20178;-69
2020/12/11 12:54:31;;;;;;;11.90;7.57;;;8.80;1.00;;;;;;5092721;28;20195;-67
2020/12/11 12:57:02;;;;;;;14.13;6.67;;;9.10;1.00;;;;;;5092470;28;20651;-67
2020/12/11 13:05:07;;;;;;;26.50;7.35;;;8.50;1.00;;;;;;5092842;28;20195;-68
2020/12/11 13:07:33;;;;;;;8.52;6.47;;;8.30;1.00;;;;;;5093022;28;20151;-68
2020/12/11 13:09:58;;;;;;;11.13;6.27;;;8.30;1.00;;;;;;5092169;28;20164;-67
2020/12/11 13:12:25;;;;;;;7.87;6.30;;;8.20;1.00;;;;;;5092121;28;20174;-67
2020/12/11 13:14:50;;;;;;;13.52;6.40;;;8.10;1.00;;;;;;5091770;28;20605;-68
2020/12/11 13:17:16;;;;;;;11.33;7.00;;;8.30;1.00;;;;;;5092137;28;20171;-67
2020/12/11 13:19:42;;;;;;;10.47;6.43;;;8.20;1.00;;;;;;5093521;28;20270;-68
2020/12/11 13:27:28;;;;;;;5.60;5.00;;;7.80;1.00;;;;;;5095730;28;20635;-68
2020/12/11 13:29:53;;;;;;;7.88;5.68;;;7.70;1.00;;;;;;5095426;28;20251;-68
2020/12/11 13:32:20;;;;;;;9.50;6.30;;;7.60;1.00;;;;;;5095759;28;20258;-67
2020/12/11 13:34:46;;;;;;;15.38;6.50;;;7.80;1.00;;;;;;5094868;28;20202;-68
2020/12/11 13:37:11;;;;;;;9.83;6.30;;;7.40;1.00;;;;;;5095626;28;20176;-68
2020/12/11 13:39:37;;;;;;;14.83;6.30;;;7.40;1.00;;;;;;5095582;28;20221;-67
2020/12/11 13:42:04;;;;;;;9.50;5.70;;;7.50;1.00;;;;;;5095497;28;20404;-66
2020/12/11 13:44:29;;;;;;;9.90;5.70;;;7.40;1.00;;;;;;5095508;28;20195;-68
2020/12/11 13:46:55;;;;;;;14.20;5.73;;;7.50;1.00;;;;;;5095043;28;20172;-68
2020/12/11 13:49:20;;;;;;;13.77;6.67;;;7.50;1.00;;;;;;5095066;28;20175;-68
2020/12/11 13:51:47;;;;;;;11.80;5.30;;;7.50;1.00;;;;;;5095124;28;20221;-68
2020/12/11 13:54:13;;;;;;;19.42;7.13;;;7.40;1.00;;;;;;5094918;28;20198;-68
2020/12/11 13:56:38;;;;;;;17.53;6.00;;;7.30;1.00;;;;;;5095015;28;20179;-69
2020/12/11 13:59:04;;;;;;;11.37;6.10;;;7.50;1.00;;;;;;5095062;28;20821;-67
2020/12/11 14:01:29;;;;;;;9.13;5.17;;;7.60;1.00;;;;;;5095233;28;20524;-66
2020/12/11 14:03:55;;;;;;;17.10;8.03;;;7.50;1.00;;;;;;5094649;28;20211;-68
2020/12/11 14:06:30;;;;;;;14.40;6.33;;;7.60;1.00;;;;;;5094891;28;20175;-68